Time;durP1;ratioP1;P1;durP2;ratioP2;P2;SDS_P1;SDS_P2;PMS_P1;PMS_P2;Temp;Humidity;BMP_temperature;BMP_pressure;BME280_temperature;BME280_humidity;BME280_pressure;Samples;Min_cycle;Max_cycle;Signal;HPM_P1;HPM_P2
2020/12/26 00:01:20;;;;;;;4.05;1.10;;;;;;;7.79;54.62;102193.03;5026881;28;20087;-70
2020/12/26 00:03:47;;;;;;;5.13;1.48;;;;;;;7.96;53.43;102185.66;5033154;28;20052;-70
2020/12/26 00:06:19;;;;;;;5.00;0.68;;;;;;;7.73;54.54;102176.56;5033926;28;20033;-71
2020/12/26 00:08:46;;;;;;;5.07;1.42;;;;;;;7.98;53.46;102178.81;5041441;28;20053;-71
2020/12/26 00:11:15;;;;;;;6.63;1.30;;;;;;;8.07;53.24;102179.00;5037620;28;20037;-71
2020/12/26 00:13:41;;;;;;;4.85;0.77;;;;;;;8.06;53.45;102181.53;5040724;28;20086;-71
2020/12/26 00:16:08;;;;;;;6.30;1.02;;;;;;;8.25;52.88;102181.09;5022864;28;20474;-71
2020/12/26 00:18:37;;;;;;;4.53;1.08;;;;;;;8.38;52.47;102189.06;5053597;28;20041;-71
2020/12/26 00:21:07;;;;;;;4.82;0.63;;;;;;;8.50;52.16;102182.44;5014330;28;20037;-70
2020/12/26 00:23:33;;;;;;;2.90;1.17;;;;;;;7.95;53.19;102173.63;5023773;28;20087;-71
2020/12/26 00:25:58;;;;;;;3.90;0.90;;;;;;;8.32;52.64;102179.50;5036248;28;20037;-70
2020/12/26 00:28:24;;;;;;;9.70;0.60;;;;;;;7.77;54.44;102170.63;5034897;28;20510;-71
2020/12/26 00:30:50;;;;;;;7.50;0.88;;;;;;;8.32;53.00;102164.03;5038193;28;20029;-70
2020/12/26 00:33:16;;;;;;;4.80;0.60;;;;;;;8.40;52.55;102171.94;5033701;28;20041;-69
2020/12/26 00:35:42;;;;;;;4.50;0.88;;;;;;;8.45;52.28;102167.75;5027240;28;20024;-70
2020/12/26 00:38:07;;;;;;;2.45;0.52;;;;;;;8.47;52.01;102160.94;5032708;28;20025;-72
2020/12/26 00:40:33;;;;;;;2.88;0.35;;;;;;;8.41;52.28;102159.09;5022013;28;20068;-72
2020/12/26 00:42:58;;;;;;;6.05;0.75;;;;;;;8.40;52.51;102159.06;5039150;28;20029;-70
2020/12/26 00:45:24;;;;;;;1.02;0.32;;;;;;;8.45;52.49;102157.44;5042403;28;20037;-73
2020/12/26 00:47:52;;;;;;;3.15;0.45;;;;;;;8.45;52.62;102158.31;5038741;28;20033;-70
2020/12/26 00:50:17;;;;;;;2.20;0.90;;;;;;;8.43;53.24;102152.25;5037807;28;20053;-71
2020/12/26 00:52:43;;;;;;;1.65;0.57;;;;;;;8.48;53.03;102160.97;5026754;28;20036;-72
2020/12/26 00:55:09;;;;;;;2.55;0.40;;;;;;;8.59;53.10;102157.69;5036121;28;20118;-70
2020/12/26 00:57:35;;;;;;;5.15;0.60;;;;;;;8.65;52.71;102160.41;5038650;28;20111;-71
2020/12/26 01:00:00;;;;;;;4.60;1.58;;;;;;;8.77;52.78;102147.69;5028975;28;20094;-69
2020/12/26 01:02:27;;;;;;;7.15;1.20;;;;;;;8.86;52.48;102147.88;5025950;28;20446;-71
2020/12/26 01:04:54;;;;;;;3.47;1.70;;;;;;;8.85;52.87;102145.28;5025156;28;20406;-71
2020/12/26 01:07:21;;;;;;;2.67;1.10;;;;;;;8.90;52.57;102141.03;5040061;28;20040;-70
2020/12/26 01:09:47;;;;;;;0.98;0.45;;;;;;;8.96;52.86;102145.44;5033403;28;20022;-71
2020/12/26 01:12:12;;;;;;;1.23;0.50;;;;;;;9.04;52.63;102141.25;5027558;28;20037;-70
2020/12/26 01:14:38;;;;;;;5.13;0.20;;;;;;;8.96;52.72;102148.03;5007319;28;20030;-71
2020/12/26 01:17:03;;;;;;;2.15;0.17;;;;;;;8.72;53.50;102147.63;5035159;28;20029;-70
2020/12/26 01:19:29;;;;;;;0.90;0.30;;;;;;;8.85;53.23;102135.81;5041513;28;20383;-70
2020/12/26 01:21:55;;;;;;;2.45;0.15;;;;;;;9.08;52.67;102133.59;5033078;28;20033;-71
2020/12/26 01:24:21;;;;;;;2.60;0.30;;;;;;;8.97;52.79;102135.13;5038416;28;20441;-72
2020/12/26 01:26:48;;;;;;;3.80;0.30;;;;;;;8.79;53.25;102135.72;5033944;28;20037;-71
2020/12/26 01:29:15;;;;;;;2.38;0.25;;;;;;;8.88;53.00;102130.69;5039250;28;20032;-71
2020/12/26 01:31:41;;;;;;;2.10;1.38;;;;;;;9.02;52.45;102119.75;5037207;28;20067;-71
2020/12/26 01:34:07;;;;;;;4.35;0.13;;;;;;;8.78;53.06;102128.84;5035061;28;20401;-71
2020/12/26 01:36:33;;;;;;;1.30;0.10;;;;;;;8.82;52.71;102130.63;5040216;28;20030;-71
2020/12/26 01:38:58;;;;;;;3.45;0.15;;;;;;;8.90;52.46;102139.31;5033502;28;20035;-71
2020/12/26 01:41:24;;;;;;;3.28;0.63;;;;;;;8.82;52.60;102135.78;5041893;28;20037;-71
2020/12/26 01:44:01;;;;;;;4.93;0.40;;;;;;;8.82;52.67;102133.19;5027774;28;20037;-71
2020/12/26 01:46:31;;;;;;;2.97;0.10;;;;;;;8.90;52.53;102123.00;5014125;28;20107;-71
2020/12/26 01:48:59;;;;;;;2.05;0.20;;;;;;;8.57;53.23;102136.19;5029651;28;20321;-70
2020/12/26 01:51:26;;;;;;;1.85;0.22;;;;;;;8.77;53.12;102137.38;5035646;28;20106;-70
2020/12/26 01:53:53;;;;;;;1.90;0.60;;;;;;;8.51;53.65;102137.81;5028628;28;20033;-71
2020/12/26 01:56:19;;;;;;;3.13;0.28;;;;;;;8.38;54.27;102135.81;5040050;28;20120;-70
2020/12/26 01:58:45;;;;;;;4.43;0.60;;;;;;;8.52;53.81;102131.81;5031233;28;20032;-70
2020/12/26 02:01:11;;;;;;;1.88;0.13;;;;;;;8.64;53.55;102126.03;5033573;28;20029;-70
2020/12/26 02:03:42;;;;;;;2.38;0.10;;;;;;;8.81;53.08;102122.84;5042525;28;20045;-70
2020/12/26 02:06:08;;;;;;;1.90;0.10;;;;;;;8.91;52.71;102115.31;5025426;28;20030;-70
2020/12/26 02:08:35;;;;;;;2.55;0.20;;;;;;;8.48;53.52;102119.75;5035159;28;20052;-70
2020/12/26 02:11:05;;;;;;;2.53;0.47;;;;;;;8.79;52.64;102120.25;5037334;28;20390;-71
2020/12/26 02:13:32;;;;;;;0.93;0.00;;;;;;;8.65;53.03;102119.16;5014560;28;20053;-71
2020/12/26 02:16:05;;;;;;;0.85;0.10;;;;;;;8.64;53.14;102122.56;5041733;28;20788;-71
2020/12/26 02:18:32;;;;;;;11.38;1.20;;;;;;;8.56;53.13;102106.13;5040275;28;20108;-71
2020/12/26 02:20:58;;;;;;;1.00;0.10;;;;;;;8.50;53.52;102112.88;5039347;28;20843;-71
2020/12/26 02:23:26;;;;;;;1.80;0.32;;;;;;;8.65;53.24;102116.56;5025422;28;20033;-71
2020/12/26 02:25:55;;;;;;;0.45;0.15;;;;;;;8.51;53.84;102104.31;5041928;28;20044;-71
2020/12/26 02:28:21;;;;;;;9.95;1.30;;;;;;;8.50;53.75;102097.41;5040400;28;20040;-71
2020/12/26 02:30:46;;;;;;;0.63;0.10;;;;;;;8.66;53.14;102110.56;5044682;28;20037;-71
2020/12/26 02:33:12;;;;;;;0.20;0.13;;;;;;;8.21;54.03;102101.16;5041415;28;20087;-70
2020/12/26 02:35:38;;;;;;;2.92;0.20;;;;;;;8.21;54.64;102096.00;5040980;28;20501;-71
2020/12/26 02:38:03;;;;;;;0.30;0.10;;;;;;;8.44;54.05;102092.19;5047631;28;20497;-71
2020/12/26 02:40:29;;;;;;;0.52;0.10;;;;;;;8.60;53.42;102092.44;5043327;28;20109;-70
2020/12/26 02:42:54;;;;;;;1.10;0.73;;;;;;;8.10;54.36;102086.38;5039233;28;20036;-71
2020/12/26 02:45:20;;;;;;;0.85;0.47;;;;;;;8.42;53.95;102083.56;5036754;28;20037;-71
2020/12/26 02:47:46;;;;;;;4.38;0.20;;;;;;;8.32;54.37;102086.75;5040323;28;20506;-71
2020/12/26 02:50:11;;;;;;;1.13;0.20;;;;;;;8.44;54.21;102084.44;5033884;28;20034;-71
2020/12/26 02:52:37;;;;;;;5.20;0.20;;;;;;;8.66;53.76;102079.63;5037025;28;20029;-71
2020/12/26 02:55:02;;;;;;;6.00;0.43;;;;;;;8.50;54.09;102076.81;5042156;28;20030;-71
2020/12/26 02:57:28;;;;;;;3.58;0.50;;;;;;;8.31;54.68;102072.16;5038529;28;20041;-71
2020/12/26 02:59:53;;;;;;;1.65;0.20;;;;;;;8.70;53.82;102076.28;5044233;28;20022;-71
2020/12/26 03:02:19;;;;;;;6.05;0.52;;;;;;;7.97;56.04;102074.13;5034960;28;20712;-71
2020/12/26 03:04:44;;;;;;;0.45;0.20;;;;;;;7.85;56.14;102068.72;5031925;28;20056;-71
2020/12/26 03:07:10;;;;;;;4.65;0.40;;;;;;;8.39;54.73;102057.69;5032905;28;20055;-71
2020/12/26 03:09:35;;;;;;;1.75;0.43;;;;;;;7.86;55.72;102060.19;5034170;28;20033;-71
2020/12/26 03:12:01;;;;;;;6.57;0.82;;;;;;;7.83;56.54;102055.81;5039802;28;20560;-71
2020/12/26 03:14:26;;;;;;;1.23;0.28;;;;;;;7.37;57.79;102059.19;5016187;28;20037;-70
2020/12/26 03:16:52;;;;;;;2.78;1.25;;;;;;;8.16;55.38;102047.00;5033768;28;20414;-71
2020/12/26 03:19:17;;;;;;;3.03;0.57;;;;;;;8.27;54.98;102039.47;5038614;28;20026;-71
2020/12/26 03:21:43;;;;;;;3.55;0.50;;;;;;;8.18;55.19;102026.41;5041745;28;20037;-71
2020/12/26 03:24:08;;;;;;;5.15;0.52;;;;;;;7.87;55.84;102028.44;5041746;28;20033;-71
2020/12/26 03:26:34;;;;;;;3.10;0.52;;;;;;;7.31;56.92;102020.47;5039840;28;20037;-71
2020/12/26 03:28:59;;;;;;;11.25;0.60;;;;;;;7.84;56.08;102015.50;5040897;28;20030;-71
2020/12/26 03:31:25;;;;;;;1.17;0.50;;;;;;;7.80;56.19;102006.00;5039953;28;20226;-71
2020/12/26 03:33:50;;;;;;;2.15;0.63;;;;;;;7.79;55.99;102009.38;5041489;28;20084;-71
2020/12/26 03:36:16;;;;;;;2.83;0.55;;;;;;;7.77;56.26;102006.81;5041971;28;20032;-71
2020/12/26 03:38:41;;;;;;;2.63;0.50;;;;;;;8.26;54.85;102010.25;5039141;28;20036;-70
2020/12/26 03:41:07;;;;;;;8.52;0.63;;;;;;;8.06;55.08;102009.91;5027919;28;20037;-70
2020/12/26 03:43:32;;;;;;;2.53;0.68;;;;;;;8.00;55.83;102004.66;5037753;28;20030;-71
2020/12/26 03:45:58;;;;;;;4.38;0.47;;;;;;;8.07;55.34;102006.50;5025675;28;20052;-70
2020/12/26 03:48:23;;;;;;;2.05;0.55;;;;;;;8.27;54.84;102005.97;5043291;28;20049;-71
2020/12/26 03:50:49;;;;;;;1.27;0.45;;;;;;;8.23;55.22;101999.03;5037685;28;20021;-70
2020/12/26 03:53:14;;;;;;;5.55;0.47;;;;;;;8.42;54.75;102000.25;5033194;28;20029;-70
2020/12/26 03:55:40;;;;;;;7.80;0.60;;;;;;;8.06;55.69;101997.03;5025292;28;20397;-71
2020/12/26 03:58:05;;;;;;;2.83;0.57;;;;;;;8.61;53.88;101991.94;5024570;28;20487;-70
2020/12/26 04:00:31;;;;;;;1.83;0.65;;;;;;;8.39;54.64;101984.69;5033300;28;20129;-70
2020/12/26 04:02:56;;;;;;;3.15;0.40;;;;;;;8.54;54.06;101984.09;5032842;28;20065;-71
2020/12/26 04:05:22;;;;;;;2.45;0.50;;;;;;;8.60;53.94;101979.91;5020671;28;20034;-70
2020/12/26 04:07:48;;;;;;;1.55;1.05;;;;;;;8.67;53.75;101986.03;5032222;28;20036;-71
2020/12/26 04:10:13;;;;;;;4.57;0.50;;;;;;;8.69;53.42;101989.50;5034032;28;20076;-71
2020/12/26 04:12:38;;;;;;;4.38;0.50;;;;;;;8.59;53.57;101982.47;5035785;28;20068;-71
2020/12/26 04:15:04;;;;;;;5.78;0.95;;;;;;;8.17;55.01;101978.31;5036087;28;20048;-70
2020/12/26 04:17:32;;;;;;;1.20;0.60;;;;;;;7.81;56.40;101969.13;5034755;28;20053;-70
2020/12/26 04:19:58;;;;;;;2.50;0.63;;;;;;;8.26;54.70;101969.06;5038283;28;20025;-71
2020/12/26 04:22:23;;;;;;;2.47;0.50;;;;;;;8.52;54.08;101972.06;5032700;28;20036;-71
2020/12/26 04:24:49;;;;;;;1.67;0.47;;;;;;;8.41;54.51;101968.44;5031907;28;20063;-71
2020/12/26 04:27:14;;;;;;;2.95;0.50;;;;;;;8.79;53.42;101967.28;5032191;28;20044;-71
2020/12/26 04:29:40;;;;;;;4.72;0.40;;;;;;;8.73;53.77;101965.50;5025503;28;20504;-70
2020/12/26 04:32:05;;;;;;;2.30;0.77;;;;;;;8.86;53.26;101971.69;5002892;28;20030;-70
2020/12/26 04:34:31;;;;;;;2.05;0.30;;;;;;;8.44;54.36;101972.78;5033568;28;20029;-70
2020/12/26 04:36:56;;;;;;;4.93;0.20;;;;;;;8.34;54.46;101973.44;5021191;28;20037;-70
2020/12/26 04:39:22;;;;;;;6.75;0.50;;;;;;;8.73;53.90;101975.81;5009898;28;20029;-70
2020/12/26 04:41:48;;;;;;;3.92;0.50;;;;;;;8.61;54.14;101968.75;5006308;28;20025;-70
2020/12/26 04:44:14;;;;;;;8.20;0.50;;;;;;;8.67;54.03;101957.69;5035870;28;20398;-70
2020/12/26 04:46:41;;;;;;;3.65;0.57;;;;;;;8.25;55.29;101956.13;5033393;28;20045;-70
2020/12/26 04:49:08;;;;;;;8.27;0.70;;;;;;;8.45;55.09;101959.06;5036570;28;20068;-70
2020/12/26 04:51:39;;;;;;;3.47;0.75;;;;;;;8.61;54.84;101955.88;5031206;28;20045;-70
2020/12/26 04:54:29;;;;;;;1.70;0.32;;;;;;;7.86;57.16;101945.19;5017147;28;20052;-70
2020/12/26 04:56:56;;;;;;;2.75;0.50;;;;;;;8.13;56.10;101936.22;5019622;28;20038;-70
2020/12/26 04:59:23;;;;;;;2.88;0.50;;;;;;;8.65;54.82;101933.59;5038192;28;20036;-70
2020/12/26 05:01:50;;;;;;;4.35;0.40;;;;;;;8.83;54.40;101933.84;5032630;28;20037;-70
2020/12/26 05:04:16;;;;;;;0.95;0.32;;;;;;;8.87;54.37;101920.16;5039168;28;20029;-70
2020/12/26 05:06:50;;;;;;;6.05;0.82;;;;;;;8.88;54.38;101916.72;5032375;28;20034;-70
2020/12/26 05:09:17;;;;;;;6.05;0.70;;;;;;;8.69;54.95;101922.50;5025593;28;20048;-70
2020/12/26 05:11:57;;;;;;;4.32;0.30;;;;;;;8.55;54.78;101914.56;5021589;28;20042;-70
2020/12/26 05:14:24;;;;;;;3.08;0.43;;;;;;;8.59;55.27;101918.03;5038845;28;20076;-70
2020/12/26 05:16:52;;;;;;;2.17;0.20;;;;;;;8.31;55.89;101912.47;5038102;28;20508;-69
2020/12/26 05:19:18;;;;;;;1.23;0.45;;;;;;;8.36;55.97;101908.22;5037332;28;20063;-70
2020/12/26 05:21:51;;;;;;;1.83;0.28;;;;;;;8.45;55.99;101918.69;5032828;28;20049;-70
2020/12/26 05:24:20;;;;;;;5.72;0.30;;;;;;;8.58;55.50;101908.59;5034308;28;20562;-71
2020/12/26 05:26:55;;;;;;;4.68;0.45;;;;;;;7.95;57.44;101911.03;5039811;28;20095;-70
2020/12/26 05:29:22;;;;;;;1.73;0.20;;;;;;;7.73;58.21;101914.09;5038405;28;20474;-70
2020/12/26 05:31:53;;;;;;;1.08;0.20;;;;;;;7.88;57.55;101919.47;5031404;28;20017;-70
2020/12/26 05:34:21;;;;;;;3.00;0.20;;;;;;;8.32;56.52;101927.06;5019254;28;20029;-71
2020/12/26 05:36:47;;;;;;;3.45;0.32;;;;;;;8.07;56.59;101923.22;5026751;28;20045;-70
2020/12/26 05:39:12;;;;;;;5.95;1.20;;;;;;;8.31;56.51;101925.34;5034965;28;20025;-70
2020/12/26 05:41:43;;;;;;;0.75;0.20;;;;;;;8.46;55.85;101920.44;5036367;28;20098;-70
2020/12/26 05:44:11;;;;;;;0.88;0.20;;;;;;;8.24;56.58;101920.94;5018815;28;20053;-70
2020/12/26 05:46:36;;;;;;;8.98;0.55;;;;;;;8.43;55.91;101922.09;5021417;28;20915;-70
2020/12/26 05:49:26;;;;;;;0.63;0.25;;;;;;;8.23;56.68;101921.75;5034042;28;20029;-70
2020/12/26 05:51:57;;;;;;;4.78;0.35;;;;;;;8.27;56.78;101913.25;5036911;28;20055;-70
2020/12/26 05:54:24;;;;;;;2.15;0.40;;;;;;;7.78;58.00;101912.44;5022630;28;20169;-70
2020/12/26 05:56:49;;;;;;;2.88;0.45;;;;;;;7.79;58.19;101924.47;5019591;28;20437;-70
2020/12/26 05:59:23;;;;;;;3.33;0.47;;;;;;;8.15;56.91;101920.75;5033860;28;20029;-70
2020/12/26 06:01:50;;;;;;;4.20;0.20;;;;;;;8.11;56.84;101913.00;5023021;28;20057;-70
2020/12/26 06:04:19;;;;;;;3.10;0.30;;;;;;;8.30;56.21;101913.28;5038116;28;20044;-70
2020/12/26 06:06:50;;;;;;;1.52;0.30;;;;;;;7.96;56.93;101912.75;5022688;28;20029;-71
2020/12/26 06:09:18;;;;;;;0.90;0.20;;;;;;;7.65;58.37;101914.78;5010165;28;20030;-71
2020/12/26 06:11:45;;;;;;;3.40;0.35;;;;;;;8.29;56.20;101916.72;5020048;28;20045;-71
2020/12/26 06:14:16;;;;;;;3.63;0.30;;;;;;;7.84;57.70;101912.56;5055283;22;20110;-74
2020/12/26 06:16:47;;;;;;;3.25;0.30;;;;;;;7.79;58.07;101911.59;5034168;28;20559;-74
2020/12/26 06:19:16;;;;;;;5.67;0.20;;;;;;;8.12;56.52;101906.13;5051387;28;20882;-74
2020/12/26 06:21:42;;;;;;;3.40;0.70;;;;;;;7.77;58.05;101902.97;5053772;28;20029;-76
2020/12/26 06:24:09;;;;;;;1.30;0.32;;;;;;;7.61;58.11;101897.59;5058628;28;20062;-75
2020/12/26 06:26:42;;;;;;;3.03;0.22;;;;;;;7.82;57.88;101903.94;5056050;28;20071;-76
2020/12/26 06:29:08;;;;;;;0.68;0.32;;;;;;;7.93;57.30;101909.28;5046403;28;20040;-75
2020/12/26 06:31:33;;;;;;;0.93;0.38;;;;;;;8.34;56.08;101914.22;5059762;28;20044;-75
2020/12/26 06:33:59;;;;;;;5.72;0.57;;;;;;;8.48;55.71;101913.63;5045903;28;20135;-76
2020/12/26 06:36:25;;;;;;;3.47;0.20;;;;;;;8.05;56.81;101905.16;5054632;28;20551;-77
2020/12/26 06:38:50;;;;;;;6.38;0.73;;;;;;;7.78;57.87;101902.16;5043633;28;20108;-75
2020/12/26 06:41:17;;;;;;;1.80;0.40;;;;;;;7.94;57.50;101898.13;5043939;28;20079;-75
2020/12/26 06:43:57;;;;;;;4.00;0.30;;;;;;;7.95;57.40;101894.69;5050703;28;20060;-74
2020/12/26 06:46:22;;;;;;;1.85;0.50;;;;;;;7.77;58.14;101895.25;5050169;28;20036;-73
2020/12/26 06:48:55;;;;;;;3.65;0.60;;;;;;;8.24;56.96;101882.31;5052675;28;20029;-75
2020/12/26 06:51:36;;;;;;;5.25;1.67;;;;;;;7.67;58.42;101883.94;5058286;28;20036;-73
2020/12/26 06:54:07;;;;;;;3.75;0.55;;;;;;;7.64;59.19;101895.06;5030677;28;20037;-76
2020/12/26 06:56:35;;;;;;;4.40;0.60;;;;;;;7.88;57.81;101886.00;5055084;28;20040;-72
2020/12/26 06:59:04;;;;;;;3.45;0.70;;;;;;;7.79;58.12;101884.16;5042711;28;20111;-73
2020/12/26 07:01:31;;;;;;;1.73;0.55;;;;;;;8.30;56.90;101890.09;5051363;28;20032;-73
2020/12/26 07:04:15;;;;;;;3.50;1.10;;;;;;;8.17;57.64;101901.06;5056892;28;20528;-73
2020/12/26 07:07:01;;;;;;;6.00;1.08;;;;;;;8.04;57.43;101889.72;5049908;28;20072;-74
2020/12/26 07:09:36;;;;;;;3.58;0.80;;;;;;;8.45;56.64;101882.63;5050284;28;20132;-76
2020/12/26 07:12:03;;;;;;;6.10;1.13;;;;;;;7.93;58.29;101881.81;5055290;28;20036;-74
2020/12/26 07:14:29;;;;;;;2.88;0.98;;;;;;;7.98;58.11;101885.31;5039386;28;20033;-75
2020/12/26 07:16:59;;;;;;;7.60;1.42;;;;;;;8.58;56.43;101882.81;5055899;28;20115;-73
2020/12/26 07:19:47;;;;;;;2.92;1.38;;;;;;;8.62;56.16;101884.59;5038678;28;20140;-73
2020/12/26 07:22:21;;;;;;;9.55;2.10;;;;;;;8.73;55.86;101881.31;5049952;28;20037;-73
2020/12/26 07:24:49;;;;;;;7.00;2.05;;;;;;;8.22;57.30;101886.56;5053960;28;20039;-73
2020/12/26 07:27:31;;;;;;;8.65;2.47;;;;;;;8.32;57.15;101880.69;5050480;28;20036;-73
2020/12/26 07:29:58;;;;;;;2.83;2.10;;;;;;;8.33;57.24;101869.56;5045287;28;20025;-73
2020/12/26 07:32:36;;;;;;;7.38;2.10;;;;;;;7.49;59.60;101864.78;5051196;28;20041;-73
2020/12/26 07:35:03;;;;;;;10.27;1.95;;;;;;;7.96;58.50;101863.84;5051402;28;20043;-73
2020/12/26 07:37:28;;;;;;;6.20;2.65;;;;;;;7.84;59.13;101858.50;5050883;28;20036;-72
2020/12/26 07:39:54;;;;;;;5.13;2.75;;;;;;;7.88;58.64;101852.53;5051435;28;20098;-72
2020/12/26 07:42:22;;;;;;;8.63;3.08;;;;;;;8.19;57.88;101850.44;5039236;28;20044;-72
2020/12/26 07:44:48;;;;;;;6.03;3.05;;;;;;;8.56;56.85;101848.44;5045505;28;20123;-72
2020/12/26 07:47:14;;;;;;;8.38;3.38;;;;;;;7.97;58.31;101847.56;5041554;28;20627;-72
2020/12/26 07:49:39;;;;;;;12.18;4.80;;;;;;;8.27;57.41;101851.44;5047633;28;20032;-72
2020/12/26 07:52:07;;;;;;;15.57;5.90;;;;;;;8.11;57.82;101850.34;5045788;28;20033;-72
2020/12/26 07:54:32;;;;;;;8.18;4.35;;;;;;;8.29;57.58;101849.75;5049412;28;20050;-71
2020/12/26 07:56:58;;;;;;;7.10;3.60;;;;;;;8.34;57.42;101858.41;5033348;28;20040;-72
2020/12/26 07:59:24;;;;;;;15.40;4.15;;;;;;;8.34;57.12;101863.56;5048927;28;20037;-72
2020/12/26 08:01:53;;;;;;;8.48;4.30;;;;;;;8.46;57.12;101853.47;5045936;28;20035;-72
2020/12/26 08:04:19;;;;;;;10.55;4.97;;;;;;;7.78;58.72;101855.81;5049416;28;20039;-72
2020/12/26 08:06:46;;;;;;;6.00;3.67;;;;;;;8.42;57.06;101851.69;5035236;28;20032;-72
2020/12/26 08:09:13;;;;;;;8.40;4.35;;;;;;;7.69;59.42;101844.53;5049302;28;20032;-72
2020/12/26 08:11:39;;;;;;;5.72;4.35;;;;;;;7.46;59.92;101848.44;5033496;28;20501;-72
2020/12/26 08:14:04;;;;;;;10.15;3.97;;;;;;;7.42;59.42;101850.06;5053024;28;20036;-73
2020/12/26 08:16:30;;;;;;;12.27;4.47;;;;;;;8.16;57.69;101840.13;5049778;28;20041;-72
2020/12/26 08:18:56;;;;;;;8.40;4.32;;;;;;;8.12;57.82;101846.91;5039577;28;20032;-73
2020/12/26 08:21:22;;;;;;;13.98;4.50;;;;;;;8.28;56.76;101842.84;5048813;28;20095;-72
2020/12/26 08:23:59;;;;;;;6.65;3.25;;;;;;;7.48;59.28;101836.47;5035096;28;20033;-72
2020/12/26 08:26:26;;;;;;;14.43;4.28;;;;;;;7.99;58.38;101839.84;5051448;28;20126;-72
2020/12/26 08:28:55;;;;;;;6.40;3.50;;;;;;;8.25;57.39;101847.97;5047886;28;20550;-72
2020/12/26 08:31:23;;;;;;;6.45;3.22;;;;;;;7.95;58.26;101838.06;5046597;28;20047;-73
2020/12/26 08:34:21;;;;;;;10.85;4.25;;;;;;;7.89;59.00;101831.13;5027351;28;20060;-73
2020/12/26 08:36:56;;;;;;;12.20;3.78;;;;;;;8.41;57.16;101824.19;5031254;28;20052;-72
2020/12/26 08:39:24;;;;;;;12.98;3.08;;;;;;;7.41;59.74;101829.47;5048375;28;20104;-72
2020/12/26 08:41:52;;;;;;;4.93;2.67;;;;;;;8.03;58.06;101816.75;5045473;28;20041;-73
2020/12/26 08:44:19;;;;;;;12.23;4.70;;;;;;;7.76;59.14;101811.19;5049935;28;20033;-72
2020/12/26 08:46:46;;;;;;;8.00;3.05;;;;;;;7.99;58.29;101804.69;5038332;28;20029;-72
2020/12/26 08:49:13;;;;;;;6.03;3.72;;;;;;;8.14;57.58;101808.31;5043329;28;20035;-72
2020/12/26 08:51:43;;;;;;;9.05;3.50;;;;;;;7.88;58.47;101803.63;5048057;28;20099;-73
2020/12/26 08:54:22;;;;;;;10.65;2.83;;;;;;;7.73;58.88;101790.56;5019042;28;20041;-72
2020/12/26 08:56:49;;;;;;;4.45;2.40;;;;;;;7.93;58.14;101794.28;5047522;28;20246;-73
2020/12/26 08:59:29;;;;;;;7.57;2.55;;;;;;;8.16;58.01;101796.34;5026012;28;80385;-72
2020/12/26 09:02:26;;;;;;;6.35;2.13;;;;;;;0.92;59.04;101796.84;5029039;27;135089;-72
2020/12/26 09:04:51;;;;;;;7.75;3.33;;;;;;;1.85;56.91;101800.66;5044852;28;20042;-70
2020/12/26 09:07:23;;;;;;;7.65;2.55;;;;;;;1.76;56.67;101805.72;5023045;28;20036;-70
2020/12/26 09:09:48;;;;;;;9.68;2.70;;;;;;;1.43;57.43;101801.88;5013108;28;20042;-73
2020/12/26 09:13:29;;;;;;;7.90;3.10;;;;;;;4.84;56.47;101795.47;5137573;27;20855;-70
2020/12/26 09:16:09;;;;;;;10.50;2.47;;;;;;;4.51;57.47;101794.25;5106847;28;20038;-70
2020/12/26 09:18:37;;;;;;;9.00;2.65;;;;;;;4.38;57.66;101803.50;5088053;28;20039;-70
2020/12/26 09:21:22;;;;;;;7.43;2.33;;;;;;;4.92;56.98;101797.31;5035626;28;20866;-71
2020/12/26 09:23:48;;;;;;;6.15;2.55;;;;;;;4.86;57.04;101786.94;5063953;28;20048;-70
2020/12/26 09:28:16;;;;;;;8.77;3.67;;;;;;;2.93;57.30;101788.75;5078640;27;20839;-72
2020/12/26 09:30:42;;;;;;;8.27;3.28;;;;;;;2.94;56.86;101785.28;5063688;28;20053;-70
2020/12/26 09:33:08;;;;;;;8.27;3.72;;;;;;;3.30;56.03;101783.06;5057097;28;20478;-70
2020/12/26 09:35:34;;;;;;;3.38;1.92;;;;;;;3.21;55.80;101789.00;5057041;28;20490;-70
2020/12/26 09:38:01;;;;;;;4.63;2.30;;;;;;;3.08;56.14;101776.84;5049262;28;20036;-71
2020/12/26 09:40:31;;;;;;;7.03;3.00;;;;;;;3.13;56.33;101785.47;5053626;28;20106;-70
2020/12/26 09:42:58;;;;;;;4.07;1.97;;;;;;;3.49;55.54;101771.19;5056714;28;20071;-72
2020/12/26 09:45:23;;;;;;;5.85;2.72;;;;;;;3.11;56.94;101764.00;5051762;28;20099;-70
2020/12/26 09:47:49;;;;;;;7.50;2.95;;;;;;;3.24;55.96;101752.94;5055429;28;20087;-70
2020/12/26 09:50:14;;;;;;;8.82;2.50;;;;;;;3.24;56.13;101760.69;5057542;28;20099;-72
2020/12/26 09:52:42;;;;;;;4.75;2.30;;;;;;;2.94;57.66;101762.09;5061211;28;20474;-70
2020/12/26 09:55:09;;;;;;;4.63;2.33;;;;;;;3.40;56.08;101750.47;5063773;28;20041;-70
2020/12/26 09:57:34;;;;;;;2.38;1.65;;;;;;;2.91;57.55;101754.34;5052488;28;20112;-71
2020/12/26 10:00:00;;;;;;;4.35;2.10;;;;;;;3.70;55.34;101755.00;5056046;28;20147;-71
2020/12/26 10:02:25;;;;;;;9.05;2.38;;;;;;;3.32;55.91;101751.25;5042570;28;20507;-71
2020/12/26 10:04:51;;;;;;;11.70;2.53;;;;;;;3.16;56.69;101744.25;5055839;28;20054;-71
2020/12/26 10:07:20;;;;;;;7.13;2.25;;;;;;;2.81;57.76;101726.72;5055387;28;20505;-71
2020/12/26 10:09:45;;;;;;;4.22;1.98;;;;;;;2.92;57.57;101727.69;5050696;28;20467;-70
2020/12/26 10:12:12;;;;;;;7.88;2.95;;;;;;;3.38;56.81;101734.09;5053908;28;20045;-70
2020/12/26 10:14:37;;;;;;;4.57;2.25;;;;;;;2.88;58.31;101723.34;5057900;28;20051;-70
2020/12/26 10:17:03;;;;;;;7.70;2.10;;;;;;;3.38;56.71;101716.94;5057214;28;20474;-71
2020/12/26 10:19:28;;;;;;;8.00;2.70;;;;;;;3.26;56.96;101715.09;5058331;28;20045;-71
2020/12/26 10:21:54;;;;;;;9.32;3.15;;;;;;;3.79;55.51;101723.22;5037419;28;20367;-70
2020/12/26 10:24:19;;;;;;;4.60;2.17;;;;;;;3.54;55.97;101702.41;5035705;28;20025;-70
2020/12/26 10:26:45;;;;;;;4.60;2.47;;;;;;;3.44;56.51;101716.94;5053932;28;20477;-70
2020/12/26 10:29:10;;;;;;;8.30;3.08;;;;;;;3.32;56.84;101699.66;5059139;28;20032;-71
2020/12/26 10:31:36;;;;;;;4.45;2.85;;;;;;;3.14;57.32;101702.09;5050609;28;20064;-72
2020/12/26 10:34:01;;;;;;;5.53;2.97;;;;;;;3.70;55.89;101699.06;5056428;28;20154;-71
2020/12/26 10:36:27;;;;;;;6.35;3.25;;;;;;;3.40;57.06;101685.94;5057557;28;20055;-70
2020/12/26 10:38:52;;;;;;;5.07;2.40;;;;;;;3.04;58.11;101689.97;5047203;28;20584;-71
2020/12/26 10:42:40;;;;;;;5.60;3.58;;;;;;;2.56;56.68;101677.47;5033120;27;20421;-72
2020/12/26 10:45:05;;;;;;;9.52;3.38;;;;;;;2.50;56.53;101667.97;5032232;28;20029;-72
2020/12/26 10:47:31;;;;;;;4.20;2.72;;;;;;;2.75;56.54;101674.13;5018247;28;20132;-70
2020/12/26 10:49:56;;;;;;;3.42;2.58;;;;;;;2.70;56.50;101670.66;5032137;28;20033;-71
2020/12/26 10:52:22;;;;;;;4.60;2.38;;;;;;;3.24;54.36;101663.16;5033916;28;20037;-70
2020/12/26 10:54:47;;;;;;;5.45;2.05;;;;;;;2.82;55.68;101672.44;5025077;28;20036;-73
2020/12/26 10:57:13;;;;;;;4.65;1.65;;;;;;;2.41;55.54;101656.72;5037180;28;20033;-72
2020/12/26 10:59:38;;;;;;;5.43;1.75;;;;;;;2.48;56.07;101653.34;5035485;28;20044;-73
2020/12/26 11:02:04;;;;;;;7.38;4.22;;;;;;;3.12;54.25;101653.66;5034085;28;20033;-70
2020/12/26 11:04:30;;;;;;;13.57;3.53;;;;;;;3.10;54.59;101646.75;5032001;28;20519;-70
2020/12/26 11:06:56;;;;;;;4.97;2.83;;;;;;;2.87;54.97;101638.94;5035232;28;20044;-70
2020/12/26 11:09:21;;;;;;;4.65;3.05;;;;;;;2.97;55.09;101622.59;5037749;28;20041;-70
2020/12/26 11:11:48;;;;;;;4.70;1.90;;;;;;;2.57;55.47;101635.31;5033494;28;20601;-71
2020/12/26 11:14:14;;;;;;;2.17;1.63;;;;;;;2.43;56.58;101624.06;5026807;28;20041;-71
2020/12/26 11:16:40;;;;;;;8.88;1.65;;;;;;;3.12;54.65;101616.63;5030073;28;20675;-70
2020/12/26 11:19:06;;;;;;;5.03;2.50;;;;;;;2.44;55.84;101602.56;5025655;28;20125;-70
2020/12/26 11:21:31;;;;;;;4.38;2.30;;;;;;;3.14;54.27;101595.09;5020117;28;20030;-70
2020/12/26 11:23:57;;;;;;;7.93;2.40;;;;;;;2.79;55.04;101591.56;5018139;28;20039;-70
2020/12/26 11:26:23;;;;;;;5.00;1.95;;;;;;;2.78;55.38;101595.84;5039249;28;20056;-70
2020/12/26 11:28:48;;;;;;;1.92;1.50;;;;;;;1.96;56.88;101597.09;5032420;28;20029;-71
2020/12/26 11:31:21;;;;;;;2.72;1.45;;;;;;;3.35;54.20;101580.53;5034987;28;20048;-70
2020/12/26 11:33:46;;;;;;;7.07;1.48;;;;;;;2.96;54.76;101583.00;5038436;28;20029;-70
2020/12/26 11:36:18;;;;;;;7.82;1.35;;;;;;;3.90;52.25;101572.81;5034532;28;20045;-70
2020/12/26 11:38:43;;;;;;;4.00;1.60;;;;;;;3.49;53.42;101571.09;5028128;28;20034;-71